^^
Datos históricos de la estación: Murcia-Puente Tocinos
Diario Informe para Mayo 3, 2019 Unidades:  Métrico    Ingés   Ambas
Diario Semanal Mensual Anual
  Máxima: Mínima: Promedio:
Temperatura: 30.3 °C 16.4 °C 23.2 °C
Punto de rocio: 15.1 °C 8.9 °C 10.7 °C
Humedad: 71.7% 27.5% 48%
Velocidad viento: 17.2km/h 0km/h 7.3km/h
Racha viento: 32.2km/h - -
Viento- - ESE
Presión: 1017.8 hPa 1012.8 hPa -
Precipitación: 0.0 mm    
 
 
Tabla de datos para Mayo 3, 2019
Hora Temperatura Punto de rocio Presión Viento Velocidad viento Racha viento Humedad Intensidad lluvia(por hora) Nubes
00:04 19.7 °C 12.1 °C 1017.7 hPa NE 8.7 km/h 14.5 km/h 61.7% 0.0 mm
00:09 19.7 °C 12.3 °C 1017.7 hPa NE 8.3 km/h 13 km/h 62.6% 0.0 mm
00:14 19.6 °C 12.4 °C 1017.7 hPa NE 7.6 km/h 14.8 km/h 63% 0.0 mm
00:19 19.6 °C 12.5 °C 1017.7 hPa NE 8 km/h 14.5 km/h 63.6% 0.0 mm
00:24 19.5 °C 12.6 °C 1017.7 hPa NE 8.7 km/h 11.9 km/h 64.3% 0.0 mm
00:29 19.4 °C 12.7 °C 1017.7 hPa NE 8.3 km/h 11.3 km/h 65% 0.0 mm
00:34 19.3 °C 12.8 °C 1017.7 hPa NE 7.6 km/h 11.3 km/h 66% 0.0 mm
00:39 19.2 °C 12.7 °C 1017.7 hPa NNE 7.4 km/h 11.3 km/h 66% 0.0 mm
00:44 19.1 °C 12.8 °C 1017.7 hPa NNE 6.9 km/h 11.1 km/h 66.8% 0.0 mm
00:49 19 °C 12.7 °C 1017.8 hPa NNE 6.8 km/h 11.3 km/h 67.2% 0.0 mm
00:54 18.9 °C 12.7 °C 1017.8 hPa NE 6.5 km/h 11.1 km/h 67.4% 0.0 mm
00:59 18.8 °C 12.8 °C 1017.8 hPa NE 6.5 km/h 11.3 km/h 67.9% 0.0 mm
01:04 18.7 °C 12.7 °C 1017.8 hPa NE 6.5 km/h 11.3 km/h 67.8% 0.0 mm
01:09 18.7 °C 12.4 °C 1017.7 hPa NE 6.5 km/h 11.3 km/h 67% 0.0 mm
01:14 18.7 °C 12.4 °C 1017.7 hPa NE 6.5 km/h 9.7 km/h 67% 0.0 mm
01:19 18.8 °C 12.4 °C 1017.7 hPa NE 5.3 km/h 8 km/h 66.5% 0.0 mm
01:24 18.8 °C 12.2 °C 1017.7 hPa NE 3.2 km/h 8.4 km/h 65.4% 0.0 mm
01:29 18.7 °C 11.7 °C 1017.7 hPa NE 3.7 km/h 8.4 km/h 64% 0.0 mm
01:34 18.7 °C 11.6 °C 1017.7 hPa ENE 4.7 km/h 8 km/h 63.5% 0.0 mm
01:39 18.7 °C 11.4 °C 1017.7 hPa NE 4.7 km/h 8.4 km/h 62.4% 0.0 mm
01:44 18.7 °C 11.3 °C 1017.7 hPa NE 4.7 km/h 8 km/h 62% 0.0 mm
01:49 18.7 °C 11.3 °C 1017.7 hPa NE 4 km/h 5.8 km/h 61.9% 0.0 mm
01:54 18.7 °C 11 °C 1017.5 hPa ENE 2.9 km/h 6.4 km/h 61% 0.0 mm
01:59 18.8 °C 10.9 °C 1017.5 hPa ENE 2.9 km/h 6.4 km/h 60.1% 0.0 mm
02:04 18.8 °C 10.8 °C 1017.5 hPa ENE 2.9 km/h 5.6 km/h 59.5% 0.0 mm
02:09 18.8 °C 10.5 °C 1017.5 hPa ENE 3 km/h 5.8 km/h 58.4% 0.0 mm
02:14 18.8 °C 10.1 °C 1017.5 hPa ENE 3.2 km/h 6.4 km/h 57% 0.0 mm
02:19 18.8 °C 9.5 °C 1017.5 hPa ENE 3.1 km/h 5.8 km/h 54.7% 0.0 mm
02:24 18.7 °C 9.3 °C 1017.3 hPa Este 2.9 km/h 7.4 km/h 54.7% 0.0 mm
02:29 18.4 °C 9.2 °C 1017.3 hPa Este 3 km/h 8 km/h 55.1% 0.0 mm
02:34 18.3 °C 9.5 °C 1017.3 hPa Este 3.2 km/h 4.8 km/h 56.4% 0.0 mm
02:39 18.3 °C 9.6 °C 1017.1 hPa Este 2.9 km/h 4.8 km/h 57% 0.0 mm
02:44 18.3 °C 9.6 °C 1017.1 hPa Este 2.2 km/h 3.2 km/h 57% 0.0 mm
02:49 18.3 °C 9.6 °C 1017.1 hPa Este 1.5 km/h   57% 0.0 mm
02:54 18.3 °C 9.9 °C 1016.9 hPa Calm   3.9 km/h 57.9% 0.0 mm
02:59 18.3 °C 10.1 °C 1016.9 hPa Este 0.9 km/h 5.6 km/h 58.6% 0.0 mm
03:04 18.2 °C 10.2 °C 1016.9 hPa Este 2.2 km/h 4.8 km/h 59.5% 0.0 mm
03:09 18.1 °C 10.2 °C 1016.8 hPa Este 1.5 km/h 4.8 km/h 60% 0.0 mm
03:14 18.1 °C 10.2 °C 1016.8 hPa Calm   2.3 km/h 59.8% 0.0 mm
03:19 18 °C 10.1 °C 1016.8 hPa Calm   1.6 km/h 60% 0.0 mm
03:24 18 °C 10.1 °C 1016.7 hPa Calm     60% 0.0 mm
03:29 18 °C 10.4 °C 1016.7 hPa Calm   3.9 km/h 60.9% 0.0 mm
03:34 18 °C 10.4 °C 1016.7 hPa Calm   5.6 km/h 61% 0.0 mm
03:39 18 °C 10.4 °C 1016.5 hPa Calm   4.8 km/h 61% 0.0 mm
03:44 17.9 °C 10.3 °C 1016.5 hPa Calm     61% 0.0 mm
03:49 17.9 °C 10.3 °C 1016.5 hPa Calm     60.9% 0.0 mm
03:54 18 °C 10.2 °C 1016.5 hPa Calm     60.5% 0.0 mm
03:59 18 °C 10.5 °C 1016.5 hPa Calm     61.5% 0.0 mm
04:04 17.9 °C 10.3 °C 1016.5 hPa Calm     61% 0.0 mm
04:09 17.9 °C 10.2 °C 1016.5 hPa Calm   3.2 km/h 60.7% 0.0 mm
04:14 17.9 °C 9.9 °C 1016.5 hPa Calm   5.6 km/h 59.7% 0.0 mm
04:19 17.8 °C 9.6 °C 1016.5 hPa Este 0.8 km/h 5.6 km/h 58.5% 0.0 mm
04:24 17.7 °C 9.4 °C 1016.3 hPa Este 2.2 km/h 5.6 km/h 58% 0.0 mm
04:29 17.7 °C 9.4 °C 1016.3 hPa Este 2.6 km/h 5.6 km/h 58.3% 0.0 mm
04:34 17.7 °C 10 °C 1016.3 hPa Este 3.2 km/h 4.8 km/h 60.7% 0.0 mm
04:39 17.7 °C 10.3 °C 1016.3 hPa Este 2 km/h 3.7 km/h 62% 0.0 mm
04:44 17.7 °C 10.2 °C 1016.3 hPa Calm   3.7 km/h 61.5% 0.0 mm
04:49 17.7 °C 10.3 °C 1016.4 hPa Calm   3.9 km/h 62% 0.0 mm
04:54 17.7 °C 10.5 °C 1016.4 hPa Calm   3.9 km/h 62.5% 0.0 mm
04:59 17.7 °C 10.5 °C 1016.4 hPa Calm   3.2 km/h 63% 0.0 mm
05:04 17.6 °C 10.7 °C 1016.4 hPa Calm     64% 0.0 mm
05:09 17.5 °C 10.4 °C 1016.1 hPa Calm   3.9 km/h 63.2% 0.0 mm
05:14 17.4 °C 10 °C 1016.1 hPa Calm   5 km/h 61.7% 0.0 mm
05:19 17.4 °C 10 °C 1016.1 hPa Este 1.1 km/h 5.8 km/h 62% 0.0 mm
05:24 17.4 °C 10.1 °C 1016.1 hPa Este 2.9 km/h 6.4 km/h 62.3% 0.0 mm
05:29 17.4 °C 10.3 °C 1016.1 hPa SE 3.3 km/h 6.4 km/h 63% 0.0 mm
05:34 17.4 °C 10.3 °C 1016.1 hPa SE 3.9 km/h 8.4 km/h 63% 0.0 mm
05:39 17.4 °C 10.2 °C 1016.1 hPa SSE 4.1 km/h 8.4 km/h 62.4% 0.0 mm
05:44 17.4 °C 10.1 °C 1016.1 hPa SE 4.7 km/h 8 km/h 62% 0.0 mm
05:49 17.3 °C 10 °C 1016.1 hPa SE 4.1 km/h 7.4 km/h 62% 0.0 mm
05:54 17.2 °C 10 °C 1016.1 hPa SE 3.2 km/h 8 km/h 62.5% 0.0 mm
05:59 17.2 °C 10.1 °C 1016.1 hPa SE 3.5 km/h 8 km/h 63% 0.0 mm
06:04 17.1 °C 10 °C 1016.1 hPa SSE 3.9 km/h 8 km/h 63% 0.0 mm
06:09 17.1 °C 10 °C 1016.1 hPa Sur 3.9 km/h 8 km/h 63% 0.0 mm
06:14 17.1 °C 10.2 °C 1016.1 hPa SO 3.9 km/h 9.3 km/h 63.6% 0.0 mm
06:19 17.1 °C 10.2 °C 1016.3 hPa OSO 3.5 km/h 9.7 km/h 64% 0.0 mm
06:24 17.1 °C 10.2 °C 1016.3 hPa OSO 2.9 km/h 5.8 km/h 64% 0.0 mm
06:29 17 °C 10.1 °C 1016.3 hPa OSO 2.7 km/h 7.4 km/h 64% 0.0 mm
06:34 16.9 °C 10.1 °C 1016.4 hPa OSO 2.2 km/h 8 km/h 64% 0.0 mm
06:39 16.8 °C 10 °C 1016.4 hPa SO 2.6 km/h 7.4 km/h 64% 0.0 mm
06:44 16.8 °C 9.7 °C 1016.4 hPa SE 3.2 km/h 8.4 km/h 63% 0.0 mm
06:49 16.7 °C 9.5 °C 1016.5 hPa SE 3.7 km/h 8 km/h 63% 0.0 mm
06:54 16.5 °C 9.5 °C 1016.5 hPa SE 4.7 km/h 8 km/h 63% 0.0 mm
06:59 16.4 °C 9.4 °C 1016.5 hPa SE 4.7 km/h 9.3 km/h 63.1% 0.0 mm
07:04 16.4 °C 9.6 °C 1016.6 hPa SSE 4.7 km/h 9.7 km/h 64% 0.0 mm
07:09 16.4 °C 9.6 °C 1016.6 hPa SSE 4.7 km/h 8.7 km/h 64% 0.0 mm
07:14 16.4 °C 9.6 °C 1016.6 hPa Sur 4.7 km/h 10 km/h 64% 0.0 mm
07:19 16.6 °C 9.7 °C 1016.7 hPa Sur 5.1 km/h 9.7 km/h 64% 0.0 mm
07:24 16.7 °C 9.8 °C 1016.7 hPa Sur 5.8 km/h 9.7 km/h 64% 0.0 mm
07:29 16.8 °C 9.8 °C 1016.7 hPa Sur 6 km/h 9.7 km/h 63% 0.0 mm
07:34 17 °C 9.8 °C 1016.7 hPa SSE 6.5 km/h 10 km/h 62.5% 0.0 mm
07:39 17.1 °C 9.8 °C 1016.6 hPa Sur 6.2 km/h 9.7 km/h 62% 0.0 mm
07:44 17.2 °C 9.9 °C 1016.6 hPa SSE 5.8 km/h 8 km/h 62% 0.0 mm
07:49 17.4 °C 10.1 °C 1016.6 hPa SSE 4.8 km/h 8 km/h 62.3% 0.0 mm
07:54 17.5 °C 10.1 °C 1016.6 hPa SSE 3.2 km/h 4.8 km/h 61.7% 0.0 mm
07:59 17.8 °C 10.2 °C 1016.6 hPa SSE 2.8 km/h 5.8 km/h 61.4% 0.0 mm
08:04 18 °C 10.4 °C 1016.6 hPa SSE 2.2 km/h 6.4 km/h 61.2% 0.0 mm
08:09 18.3 °C 10.6 °C 1016.6 hPa Este 2.2 km/h 8 km/h 60.9% 0.0 mm
08:14 18.6 °C 10.6 °C 1016.6 hPa ENE 2.2 km/h 5.6 km/h 60% 0.0 mm
08:19 18.7 °C 10.7 °C 1016.8 hPa ENE 1.6 km/h 4.8 km/h 59.8% 0.0 mm
08:24 18.8 °C 10.6 °C 1016.8 hPa Calm   5.6 km/h 59.1% 0.0 mm
08:29 19 °C 10.8 °C 1016.8 hPa Este 0.8 km/h 5.8 km/h 59% 0.0 mm
08:34 19.1 °C 10.7 °C 1016.8 hPa ESE 2.2 km/h 7.4 km/h 58.4% 0.0 mm
08:39 19.1 °C 10.9 °C 1016.8 hPa ESE 2.8 km/h 8 km/h 59% 0.0 mm
08:44 19.2 °C 10.8 °C 1016.8 hPa SE 3.9 km/h 8.7 km/h 58.3% 0.0 mm
08:49 19.1 °C 10.7 °C 1016.8 hPa SE 4.1 km/h 9.7 km/h 57.9% 0.0 mm
08:54 19.2 °C 10.6 °C 1016.8 hPa SSE 4.7 km/h 10 km/h 57.6% 0.0 mm
08:59 19.2 °C 10.4 °C 1016.8 hPa SSE 5.1 km/h 10 km/h 57% 0.0 mm
09:04 19.3 °C 10.5 °C 1016.8 hPa SE 5.8 km/h 10 km/h 57% 0.0 mm
09:09 19.3 °C 10.5 °C 1016.8 hPa SSE 6 km/h 11.1 km/h 56.5% 0.0 mm
09:14 19.4 °C 10.4 °C 1016.8 hPa SSE 6.5 km/h 11.3 km/h 56% 0.0 mm
09:19 19.6 °C 10.6 °C 1017.1 hPa SSE 6.5 km/h 11.3 km/h 56% 0.0 mm
09:24 19.9 °C 10.7 °C 1017.1 hPa SSO 6.5 km/h 10 km/h 55.2% 0.0 mm
09:29 20.2 °C 10.7 °C 1017.1 hPa SO 5.9 km/h 10 km/h 54.2% 0.0 mm
09:34 20.4 °C 10.5 °C 1017.1 hPa Oeste 5 km/h 9.7 km/h 53.1% 0.0 mm
09:39 20.7 °C 10.6 °C 1017.1 hPa OSO 5 km/h 11.9 km/h 52.4% 0.0 mm
09:44 20.8 °C 10.2 °C 1017.1 hPa OSO 5 km/h 13 km/h 50.7% 0.0 mm
09:49 20.8 °C 10.1 °C 1017.1 hPa Oeste 5.7 km/h 12.9 km/h 50% 0.0 mm
09:54 21 °C 10.1 °C 1017.1 hPa OSO 6.9 km/h 9.7 km/h 49.8% 0.0 mm
09:59 21.3 °C 10 °C 1017.1 hPa SO 5.7 km/h 8.7 km/h 48.7% 0.0 mm
10:04 21.6 °C 9.9 °C 1017.2 hPa NO 3.9 km/h 9.7 km/h 47.4% 0.0 mm
10:09 21.8 °C 9.9 °C 1017.2 hPa NNO 4.2 km/h 9.7 km/h 47% 0.0 mm
10:14 22.1 °C 9.8 °C 1017.2 hPa NNO 4.7 km/h 9.7 km/h 45.6% 0.0 mm
10:19 22.6 °C 9.9 °C 1017.2 hPa NO 4 km/h 7.4 km/h 44.7% 0.0 mm
10:24 22.8 °C 10.1 °C 1017.0 hPa NO 2.9 km/h 8 km/h 44.6% 0.0 mm
10:29 22.9 °C 10 °C 1017.0 hPa SSO 3.6 km/h 11.1 km/h 44% 0.0 mm
10:34 22.9 °C 10 °C 1017.0 hPa Sur 4.7 km/h 11.3 km/h 44% 0.0 mm
10:39 22.9 °C 9.9 °C 1017.0 hPa SSE 5 km/h 9.7 km/h 43.8% 0.0 mm
10:44 23 °C 9.8 °C 1017.0 hPa Este 5.8 km/h 9.7 km/h 43% 0.0 mm
10:49 23.3 °C 9.8 °C 1017.0 hPa SSO 4.9 km/h 8 km/h 42.2% 0.0 mm
10:54 23.6 °C 9.7 °C 1017.0 hPa Oeste 3.2 km/h 6.4 km/h 41.4% 0.0 mm
10:59 23.8 °C 9.8 °C 1017.0 hPa NO 3.2 km/h 8.4 km/h 41.1% 0.0 mm
11:04 24.2 °C 9.7 °C 1017.0 hPa NNE 3.2 km/h 10 km/h 40.1% 0.0 mm
11:09 24.2 °C 9.7 °C 1016.9 hPa ONO 3.8 km/h 9.7 km/h 40% 0.0 mm
11:14 24.3 °C 9.7 °C 1016.9 hPa NNE 5 km/h 10 km/h 39.7% 0.0 mm
11:19 24.6 °C 9.7 °C 1016.9 hPa ENE 5 km/h 14.8 km/h 38.9% 0.0 mm
11:24 24.7 °C 9.8 °C 1016.8 hPa ESE 5 km/h 14.5 km/h 39% 0.0 mm
11:29 24.9 °C 9.9 °C 1016.8 hPa ENE 5 km/h 15.6 km/h 38.8% 0.0 mm
11:34 25 °C 10 °C 1016.8 hPa ENE 5 km/h 16.1 km/h 38.8% 0.0 mm
11:39 25.2 °C 9.8 °C 1016.7 hPa ENE 5.9 km/h 15.6 km/h 38% 0.0 mm
11:44 25.2 °C 9.6 °C 1016.7 hPa NNE 7.6 km/h 17.2 km/h 37.2% 0.0 mm
11:49 25.2 °C 9.1 °C 1016.7 hPa NNE 7.9 km/h 18.5 km/h 36% 0.0 mm
11:54 25.2 °C 9.1 °C 1016.7 hPa NNE 8.4 km/h 19.3 km/h 36.1% 0.0 mm
11:59 25.6 °C 9.7 °C 1016.7 hPa NE 7.8 km/h 15.6 km/h 36.9% 0.0 mm
12:04 25.7 °C 9.8 °C 1016.7 hPa NE 6.9 km/h 16.1 km/h 36.6% 0.0 mm
12:09 25.8 °C 9.6 °C 1016.7 hPa NE 6.8 km/h 12.9 km/h 36% 0.0 mm
12:14 26.2 °C 9.8 °C 1016.7 hPa NE 6.5 km/h 13 km/h 35.8% 0.0 mm
12:19 26.3 °C 9.8 °C 1016.7 hPa NE 6.6 km/h 14.8 km/h 35.6% 0.0 mm
12:24 26.3 °C 9.6 °C 1016.6 hPa NE 6.9 km/h 14.8 km/h 35% 0.0 mm
12:29 26.3 °C 9.7 °C 1016.6 hPa North 7.2 km/h 14.5 km/h 35.2% 0.0 mm
12:34 26.6 °C 9.8 °C 1016.6 hPa NE 7.6 km/h 13 km/h 34.8% 0.0 mm
12:39 26.7 °C 9.8 °C 1016.5 hPa NE 7.3 km/h 13.7 km/h 34.7% 0.0 mm
12:44 26.8 °C 9.8 °C 1016.5 hPa ESE 6.9 km/h 17.2 km/h 34.2% 0.0 mm
12:49 27 °C 9.8 °C 1016.5 hPa North 6.5 km/h 17.7 km/h 34% 0.0 mm
12:54 27.2 °C 10 °C 1016.4 hPa NE 5.8 km/h 16.1 km/h 34.1% 0.0 mm
12:59 27.3 °C 10.1 °C 1016.4 hPa NNE 6.8 km/h 16.1 km/h 34% 0.0 mm
13:04 27.4 °C 10.1 °C 1016.4 hPa NNE 8.4 km/h 18.5 km/h 33.9% 0.0 mm
13:09 27.6 °C 9.9 °C 1016.1 hPa NE 8.8 km/h 20.4 km/h 33.1% 0.0 mm
13:14 27.7 °C 10.1 °C 1016.1 hPa ENE 9.5 km/h 20.9 km/h 33.3% 0.0 mm
13:19 27.8 °C 10 °C 1016.1 hPa NE 9.1 km/h 17.7 km/h 32.8% 0.0 mm
13:24 27.9 °C 9.7 °C 1015.9 hPa ENE 8.4 km/h 17.7 km/h 32% 0.0 mm
13:29 28 °C 9.8 °C 1015.9 hPa NE 8.1 km/h 15.6 km/h 32% 0.0 mm
13:34 28.2 °C 9.9 °C 1015.9 hPa ENE 7.6 km/h 16.1 km/h 32% 0.0 mm
13:39 28.4 °C 9.7 °C 1015.8 hPa Este 7.9 km/h 16.1 km/h 31.2% 0.0 mm
13:44 28.8 °C 9.7 °C 1015.8 hPa ENE 8.4 km/h 17.2 km/h 30.4% 0.0 mm
13:49 28.9 °C 10.5 °C 1015.8 hPa NE 7.8 km/h 17.7 km/h 31.8% 0.0 mm
13:54 28.8 °C 9.1 °C 1015.5 hPa SSE 6.9 km/h 14.8 km/h 29.2% 0.0 mm
13:59 28.8 °C 9.1 °C 1015.5 hPa ESE 7.6 km/h 16.7 km/h 29.3% 0.0 mm
14:04 28.8 °C 9 °C 1015.5 hPa ESE 8.7 km/h 16.1 km/h 29.1% 0.0 mm
14:09 28.9 °C 9.1 °C 1015.4 hPa Este 8.3 km/h 18.3 km/h 29.1% 0.0 mm
14:14 29 °C 9.1 °C 1015.4 hPa SE 7.6 km/h 20.4 km/h 29% 0.0 mm
14:19 29 °C 9.1 °C 1015.4 hPa SSE 8.3 km/h 20.9 km/h 29% 0.0 mm
14:24 29.3 °C 9.2 °C 1015.2 hPa SSO 9.5 km/h 19.8 km/h 28.7% 0.0 mm
14:29 29.6 °C 9.2 °C 1015.2 hPa ESE 9.1 km/h 20.9 km/h 28.1% 0.0 mm
14:34 29.6 °C 8.9 °C 1015.2 hPa SE 8.4 km/h 20.9 km/h 27.5% 0.0 mm
14:39 29.6 °C 9.2 °C 1015.1 hPa Sur 8.5 km/h 16.1 km/h 28% 0.0 mm
14:44 29.7 °C 10.1 °C 1015.1 hPa Sur 8.7 km/h 15.6 km/h 29.6% 0.0 mm
14:49 29.8 °C 10.7 °C 1015.1 hPa SE 8.6 km/h 17.2 km/h 30.6% 0.0 mm
14:54 29.7 °C 10.6 °C 1014.8 hPa ENE 8.4 km/h 20.9 km/h 30.7% 0.0 mm
14:59 29.6 °C 10.9 °C 1014.8 hPa ENE 9 km/h 20.9 km/h 31.6% 0.0 mm
15:04 29.9 °C 10.6 °C 1014.8 hPa SSE 10 km/h 11.9 km/h 30.3% 0.0 mm
15:09 30.1 °C 10.3 °C 1014.7 hPa SSO 8.7 km/h 11.9 km/h 29.4% 0.0 mm
15:14 30.1 °C 10.4 °C 1014.7 hPa SSE 6.5 km/h 14.8 km/h 29.7% 0.0 mm
15:19 30.2 °C 10.7 °C 1014.7 hPa SE 6.9 km/h 14.8 km/h 30% 0.0 mm
15:24 30.3 °C 10.3 °C 1014.5 hPa SSE 7.6 km/h 14.5 km/h 29.1% 0.0 mm
15:29 30.2 °C 10.5 °C 1014.5 hPa Sur 7.9 km/h 14.5 km/h 29.6% 0.0 mm
15:34 30.1 °C 10.5 °C 1014.5 hPa SE 8.4 km/h 22.2 km/h 29.9% 0.0 mm
15:39 30.1 °C 10.5 °C 1014.2 hPa SE 9.1 km/h 22.5 km/h 29.8% 0.0 mm
15:44 30.2 °C 10.3 °C 1014.2 hPa ESE 10.3 km/h 22.5 km/h 29.3% 0.0 mm
15:49 30.2 °C 10.2 °C 1014.2 hPa SE 10.9 km/h 22.2 km/h 29% 0.0 mm
15:54 30.2 °C 10.2 °C 1014.2 hPa North 11.9 km/h 22.5 km/h 29% 0.0 mm
15:59 30.2 °C 10.1 °C 1014.2 hPa ESE 11.6 km/h 24.5 km/h 28.7% 0.0 mm
16:04 30.2 °C 9.7 °C 1014.2 hPa SE 11.1 km/h 24.5 km/h 28% 0.0 mm
16:09 30.1 °C 9.6 °C 1014.0 hPa SE 12.2 km/h 24.1 km/h 28% 0.0 mm
16:14 30.2 °C 9.7 °C 1014.0 hPa SE 14 km/h 22.2 km/h 28% 0.0 mm
16:19 30.2 °C 9.7 °C 1014.0 hPa SE 13.9 km/h 24.5 km/h 28% 0.0 mm
16:24 29.9 °C 9.4 °C 1014.0 hPa SE 13.7 km/h 24.1 km/h 28% 0.0 mm
16:29 29.9 °C 9.4 °C 1014.0 hPa SE 13.2 km/h 23.3 km/h 28% 0.0 mm
16:34 30.2 °C 9.7 °C 1014.0 hPa ESE 12.2 km/h 24.1 km/h 28% 0.0 mm
16:39 30.3 °C 9.5 °C 1013.8 hPa SE 12.9 km/h 26.2 km/h 27.6% 0.0 mm
16:44 30.1 °C 9.6 °C 1013.8 hPa SE 14 km/h 25.9 km/h 28% 0.0 mm
16:49 30.1 °C 9.6 °C 1013.8 hPa SE 14.6 km/h 24.1 km/h 28% 0.0 mm
16:54 30.1 °C 9.7 °C 1013.6 hPa ESE 15.6 km/h 24.5 km/h 28.2% 0.0 mm
16:59 29.8 °C 9.8 °C 1013.6 hPa ESE 15.3 km/h 27.8 km/h 28.9% 0.0 mm
17:04 29.6 °C 10.1 °C 1013.6 hPa ESE 14.8 km/h 27.4 km/h 29.9% 0.0 mm
17:09 29.6 °C 10.3 °C 1013.5 hPa ESE 14.5 km/h 26.2 km/h 30.3% 0.0 mm
17:14 29.7 °C 10.9 °C 1013.5 hPa ESE 14 km/h 25.9 km/h 31.4% 0.0 mm
17:19 29.8 °C 11.3 °C 1013.5 hPa ESE 13.9 km/h 25.7 km/h 31.9% 0.0 mm
17:24 29.7 °C 11.3 °C 1013.4 hPa ESE 13.7 km/h 24.1 km/h 32% 0.0 mm
17:29 29.6 °C 11.5 °C 1013.4 hPa ESE 14.1 km/h 25.9 km/h 32.7% 0.0 mm
17:34 29.6 °C 11.4 °C 1013.4 hPa SE 14.8 km/h 25.7 km/h 32.6% 0.0 mm
17:39 29.5 °C 11.1 °C 1013.4 hPa ESE 15.3 km/h 29.1 km/h 32.2% 0.0 mm
17:44 29.1 °C 11.2 °C 1013.4 hPa ESE 16.1 km/h 31.7 km/h 33.1% 0.0 mm
17:49 29.1 °C 11.2 °C 1013.4 hPa ESE 16.5 km/h 32.2 km/h 33.1% 0.0 mm
17:54 29.1 °C 11.5 °C 1013.3 hPa ESE 17.2 km/h 29.8 km/h 33.7% 0.0 mm
17:59 29 °C 11.7 °C 1013.3 hPa ESE 17.2 km/h 30.9 km/h 34.3% 0.0 mm
18:04 29.1 °C 11.8 °C 1013.3 hPa ESE 17.2 km/h 32.2 km/h 34.3% 0.0 mm
18:09 29.1 °C 12 °C 1013.2 hPa ESE 16.1 km/h 32.2 km/h 34.7% 0.0 mm
18:14 29.1 °C 11.8 °C 1013.2 hPa ESE 14 km/h 28.2 km/h 34.5% 0.0 mm
18:19 28.9 °C 11.6 °C 1013.2 hPa Este 14.6 km/h 29.6 km/h 34.2% 0.0 mm
18:24 28.7 °C 11.7 °C 1013.2 hPa Este 15.6 km/h 29 km/h 34.9% 0.0 mm
18:29 28.7 °C 11.7 °C 1013.2 hPa ESE 15.3 km/h 27.4 km/h 35% 0.0 mm
18:34 28.7 °C 11.6 °C 1013.2 hPa Este 14.8 km/h 22.5 km/h 34.8% 0.0 mm
18:39 28.7 °C 11.6 °C 1013.2 hPa Este 13.9 km/h 25.6 km/h 34.8% 0.0 mm
18:44 28.7 °C 11.3 °C 1013.2 hPa ESE 12.2 km/h 25.9 km/h 34.1% 0.0 mm
18:49 28.7 °C 11.3 °C 1013.2 hPa ESE 12.9 km/h 24.1 km/h 34% 0.0 mm
18:54 28.7 °C 11.3 °C 1013.1 hPa ESE 14 km/h 22.5 km/h 34.2% 0.0 mm
18:59 28.5 °C 11.5 °C 1013.1 hPa ESE 13.6 km/h 24.5 km/h 34.8% 0.0 mm
19:04 28.3 °C 11.4 °C 1013.1 hPa ESE 13 km/h 27.8 km/h 35% 0.0 mm
19:09 28.1 °C 11.2 °C 1013.0 hPa ESE 14.2 km/h 27.8 km/h 35% 0.0 mm
19:14 28.1 °C 11.4 °C 1013.0 hPa ESE 16.4 km/h 27.4 km/h 35.4% 0.0 mm
19:19 28.2 °C 11.3 °C 1013.0 hPa ESE 15.5 km/h 22.5 km/h 35.1% 0.0 mm
19:24 28.2 °C 11.3 °C 1012.8 hPa ESE 14 km/h 24.1 km/h 35.2% 0.0 mm
19:29 28 °C 11.2 °C 1012.8 hPa ESE 14.3 km/h 24.1 km/h 35.1% 0.0 mm
19:34 28 °C 11.1 °C 1012.8 hPa ESE 14.8 km/h 22 km/h 35% 0.0 mm
19:39 28 °C 11.1 °C 1012.8 hPa ESE 13.5 km/h 22.5 km/h 35% 0.0 mm
19:44 28.1 °C 11.1 °C 1012.8 hPa ESE 11.1 km/h 22.2 km/h 34.9% 0.0 mm
19:49 27.8 °C 10.7 °C 1012.9 hPa ESE 11.5 km/h 22.5 km/h 34.3% 0.0 mm
19:54 27.7 °C 10.6 °C 1012.9 hPa ESE 12.2 km/h 21.7 km/h 34.4% 0.0 mm
19:59 27.7 °C 10.4 °C 1012.9 hPa ESE 12.6 km/h 22.5 km/h 34% 0.0 mm
20:04 27.6 °C 10.3 °C 1012.9 hPa ESE 13 km/h 20.9 km/h 34% 0.0 mm
20:09 27.6 °C 10.3 °C 1012.9 hPa Este 12 km/h 16.7 km/h 34% 0.0 mm
20:14 27.5 °C 10.3 °C 1012.9 hPa Este 10.3 km/h 17.2 km/h 34% 0.0 mm
20:19 27.4 °C 10.1 °C 1012.9 hPa Este 10.2 km/h 17.7 km/h 34% 0.0 mm
20:24 27.3 °C 10.1 °C 1012.9 hPa Este 10 km/h 16.1 km/h 34.2% 0.0 mm
20:29 27.2 °C 10.4 °C 1012.9 hPa Este 9.4 km/h 14.5 km/h 35% 0.0 mm
20:34 27.2 °C 10.4 °C 1013.0 hPa ESE 8.4 km/h 14.8 km/h 35% 0.0 mm
20:39 26.9 °C 10.4 °C 1013.0 hPa Este 8.5 km/h 19 km/h 35.5% 0.0 mm
20:44 26.8 °C 10.5 °C 1013.0 hPa ENE 8.7 km/h 19.3 km/h 36% 0.0 mm
20:49 26.7 °C 10.4 °C 1013.0 hPa NE 8.3 km/h 14.5 km/h 36% 0.0 mm
20:54 26.6 °C 10.4 °C 1013.0 hPa NE 7.6 km/h 13 km/h 36.4% 0.0 mm
20:59 26.3 °C 10.5 °C 1013.0 hPa NE 7.6 km/h 13.7 km/h 37% 0.0 mm
21:04 26.2 °C 10.4 °C 1013.0 hPa NE 7.6 km/h 18.5 km/h 37% 0.0 mm
21:09 26 °C 9.9 °C 1013.0 hPa NE 8.5 km/h 19.3 km/h 36.2% 0.0 mm
21:14 25.8 °C 9.9 °C 1013.0 hPa NE 10 km/h 16.1 km/h 36.7% 0.0 mm
21:19 25.7 °C 10.2 °C 1013.1 hPa NE 9.4 km/h 16.7 km/h 37.9% 0.0 mm
21:24 25.5 °C 10.6 °C 1013.1 hPa NE 8.4 km/h 16.1 km/h 39.3% 0.0 mm
21:29 25.3 °C 10.9 °C 1013.1 hPa NE 8.4 km/h 14.5 km/h 40.5% 0.0 mm
21:34 25.1 °C 11.3 °C 1013.3 hPa NE 8.4 km/h 14.5 km/h 42% 0.0 mm
21:39 24.8 °C 11.6 °C 1013.3 hPa NE 8.2 km/h 13 km/h 43.6% 0.0 mm
21:44 24.7 °C 11.9 °C 1013.3 hPa NE 7.6 km/h 13.7 km/h 45% 0.0 mm
21:49 24.4 °C 11.9 °C 1013.3 hPa NE 8.3 km/h 14.8 km/h 45.7% 0.0 mm
21:54 24.3 °C 11.4 °C 1013.3 hPa NE 9.5 km/h 14.5 km/h 44.4% 0.0 mm
21:59 24.2 °C 11.7 °C 1013.3 hPa NE 9.2 km/h 13.7 km/h 45.6% 0.0 mm
22:04 24 °C 11.2 °C 1013.4 hPa NNE 8.7 km/h 15.6 km/h 44.6% 0.0 mm
22:09 23.7 °C 10.7 °C 1013.4 hPa NNE 9.2 km/h 16.1 km/h 44.1% 0.0 mm
22:14 23.3 °C 11 °C 1013.4 hPa NNE 10.3 km/h 19 km/h 46% 0.0 mm
22:19 23 °C 11.4 °C 1013.6 hPa NE 10.6 km/h 19.3 km/h 47.9% 0.0 mm
22:24 22.8 °C 11.6 °C 1013.6 hPa NNE 11.1 km/h 16.1 km/h 49.4% 0.0 mm
22:29 22.7 °C 11.9 °C 1013.6 hPa NE 11.4 km/h 19.8 km/h 50.9% 0.0 mm
22:34 22.4 °C 12.2 °C 1013.7 hPa NE 11.9 km/h 20.9 km/h 52.4% 0.0 mm
22:39 22.3 °C 12.4 °C 1013.7 hPa NE 12.3 km/h 19.3 km/h 53.6% 0.0 mm
22:44 22.2 °C 12.6 °C 1013.7 hPa NNE 13 km/h 20.4 km/h 54.9% 0.0 mm
22:49 22 °C 12.8 °C 1013.8 hPa NNE 12.3 km/h 20.9 km/h 56.2% 0.0 mm
22:54 21.8 °C 13.1 °C 1013.8 hPa NNE 11.1 km/h 19.3 km/h 57.6% 0.0 mm
22:59 21.7 °C 13.2 °C 1013.8 hPa NNE 11.3 km/h 19.3 km/h 58.9% 0.0 mm
23:04 21.5 °C 13.5 °C 1013.9 hPa NE 11.9 km/h 19.3 km/h 60.1% 0.0 mm
23:09 21.4 °C 13.6 °C 1013.9 hPa NE 11.9 km/h 16.7 km/h 61.1% 0.0 mm
23:14 21.3 °C 13.8 °C 1013.9 hPa NNE 10.6 km/h 17.2 km/h 62.5% 0.0 mm
23:19 21.2 °C 14 °C 1013.9 hPa NNE 10.2 km/h 17.7 km/h 63.9% 0.0 mm
23:24 21 °C 14.2 °C 1013.9 hPa NNE 10 km/h 16.1 km/h 65% 0.0 mm
23:29 20.9 °C 14.3 °C 1013.9 hPa NNE 9.9 km/h 16.7 km/h 65.9% 0.0 mm
23:34 20.9 °C 14.5 °C 1013.9 hPa NE 9.5 km/h 16.7 km/h 66.6% 0.0 mm
23:39 20.8 °C 14.6 °C 1013.9 hPa NNE 9.5 km/h 16.7 km/h 67.7% 0.0 mm
23:44 20.7 °C 14.7 °C 1013.9 hPa NNE 9.5 km/h 16.1 km/h 68.6% 0.0 mm
23:49 20.6 °C 14.8 °C 1014.0 hPa NNE 9.5 km/h 14.5 km/h 69.5% 0.0 mm
23:54 20.5 °C 15 °C 1014.0 hPa NNE 9.5 km/h 16.7 km/h 70.6% 0.0 mm
23:59 20.4 °C 15.1 °C 1014.0 hPa NNE 9.5 km/h 16.1 km/h 71.7% 0.0 mm
Murcia-Puente Tocinos, España
Compliments of Weather Underground - 3 mb

La estación de MeteoMurcia.com, publica sus datos en los siguientes proyectos:

Weather Underground PWS IMURCIAP2 Meteoclimatic www.awekas.at

W3Counter
Web Analytics